CPX225 Details

Departure: Ted Stevens Anchorage International Airport (PANC) at 0000 UTC
Arrival: Los Angeles International Airport (KLAX) at 0425 UTC
Route: MDO B453 KURTT B453 KYLLE B453 BOXER ENI OAK TILLT HUULL HUULL2


Current Weather Information
PANC 200753Z 36010KT 10SM BKN060 02/M05 A2989 RMK AO2 SLP122 T00171050
KLAX 200753Z 10012KT 10SM FEW016 FEW035 BKN090 BKN150 14/11 A2999 RMK AO2 SLP152 T01440111 401830117 $